Aviation Digital Data Service (ADDS)

Output produced by METARs form (0329 UTC 25 January 2020)
found at http://www.aviationweather.gov/metar/data/
 
METAR text: ROMD 250300Z AUTO VRB06KT 9999 FEW013 25/21 Q1020
Conditions at: ROMD (MINAMIDAITOJIMA , JP) observed 0300 UTC 25 January 2020
Temperature: 25.0°C (77°F)
Dewpoint: 21.0°C (70°F) [RH = 79%]
Pressure (altimeter): 30.12 inches Hg (1020.0 mb)
Winds: variable direction winds at 7 MPH (6 knots; 3.1 m/s)
Visibility: 6 or more miles (10+ km)
Ceiling: at least 12,000 feet AGL
Clouds: few clouds at 1300 feet AGL
Weather: no significant weather observed at this time

METAR text: ROMD 250200Z AUTO 10006KT 030V200 9999 FEW014 25/20 Q1020
Conditions at: ROMD (MINAMIDAITOJIMA , JP) observed 0200 UTC 25 January 2020
Temperature: 25.0°C (77°F)
Dewpoint: 20.0°C (68°F) [RH = 74%]
Pressure (altimeter): 30.12 inches Hg (1020.0 mb)
Winds: from the E (100 degrees) at 7 MPH (6 knots; 3.1 m/s)
Visibility: 6 or more miles (10+ km)
Ceiling: at least 12,000 feet AGL
Clouds: few clouds at 1400 feet AGL
Weather: no significant weather observed at this time

METAR text: ROMD 250100Z AUTO 07005KT 360V150 9999 FEW017 24/21 Q1021
Conditions at: ROMD (MINAMIDAITOJIMA , JP) observed 0100 UTC 25 January 2020
Temperature: 24.0°C (75°F)
Dewpoint: 21.0°C (70°F) [RH = 83%]
Pressure (altimeter): 30.15 inches Hg (1021.0 mb)
Winds: from the ENE (70 degrees) at 6 MPH (5 knots; 2.6 m/s)
Visibility: 6 or more miles (10+ km)
Ceiling: at least 12,000 feet AGL
Clouds: few clouds at 1700 feet AGL
Weather: no significant weather observed at this time

METAR text: ROMD 250000Z AUTO 08004KT 010V170 9999 BKN015 BKN019 23/21 Q1021
Conditions at: ROMD (MINAMIDAITOJIMA , JP) observed 0000 UTC 25 January 2020
Temperature: 23.0°C (73°F)
Dewpoint: 21.0°C (70°F) [RH = 89%]
Pressure (altimeter): 30.15 inches Hg (1021.0 mb)
Winds: from the E (80 degrees) at 5 MPH (4 knots; 2.1 m/s)
Visibility: 6 or more miles (10+ km)
Ceiling: 1500 feet AGL
Clouds: broken clouds at 1500 feet AGL
broken clouds at 1900 feet AGL
Weather: no significant weather observed at this time

METAR text: ROMD 242300Z AUTO VRB03KT 9999 BKN014 BKN022 23/20 Q1021
Conditions at: ROMD (MINAMIDAITOJIMA , JP) observed 2300 UTC 24 January 2020
Temperature: 23.0°C (73°F)
Dewpoint: 20.0°C (68°F) [RH = 83%]
Pressure (altimeter): 30.15 inches Hg (1021.0 mb)
Winds: variable direction winds at 3 MPH (3 knots; 1.5 m/s)
Visibility: 6 or more miles (10+ km)
Ceiling: 1400 feet AGL
Clouds: broken clouds at 1400 feet AGL
broken clouds at 2200 feet AGL
Weather: no significant weather observed at this time

METAR text: ROMD 242200Z AUTO VRB03KT 9999 SCT015 BKN017 BKN022 22/20 Q1020
Conditions at: ROMD (MINAMIDAITOJIMA , JP) observed 2200 UTC 24 January 2020
Temperature: 22.0°C (72°F)
Dewpoint: 20.0°C (68°F) [RH = 88%]
Pressure (altimeter): 30.12 inches Hg (1020.0 mb)
Winds: variable direction winds at 3 MPH (3 knots; 1.5 m/s)
Visibility: 6 or more miles (10+ km)
Ceiling: 1700 feet AGL
Clouds: scattered clouds at 1500 feet AGL
broken clouds at 1700 feet AGL
broken clouds at 2200 feet AGL
Weather: no significant weather observed at this time

METAR text: ROMD 242100Z AUTO VRB02KT 9999 FEW016 22/20 Q1020
Conditions at: ROMD (MINAMIDAITOJIMA , JP) observed 2100 UTC 24 January 2020
Temperature: 22.0°C (72°F)
Dewpoint: 20.0°C (68°F) [RH = 88%]
Pressure (altimeter): 30.12 inches Hg (1020.0 mb)
Winds: variable direction winds at 2 MPH (2 knots; 1.0 m/s)
Visibility: 6 or more miles (10+ km)
Ceiling: at least 12,000 feet AGL
Clouds: few clouds at 1600 feet AGL
Weather: no significant weather observed at this time

METAR text: ROMD 242000Z AUTO 10003KT 020V160 9999 FEW020 23/19 Q1020
Conditions at: ROMD (MINAMIDAITOJIMA , JP) observed 2000 UTC 24 January 2020
Temperature: 23.0°C (73°F)
Dewpoint: 19.0°C (66°F) [RH = 78%]
Pressure (altimeter): 30.12 inches Hg (1020.0 mb)
Winds: from the E (100 degrees) at 3 MPH (3 knots; 1.5 m/s)
Visibility: 6 or more miles (10+ km)
Ceiling: at least 12,000 feet AGL
Clouds: few clouds at 2000 feet AGL
Weather: no significant weather observed at this time

METAR text: ROMD 241900Z AUTO 31003KT 270V340 9999 NCD 21/19 Q1020
Conditions at: ROMD (MINAMIDAITOJIMA , JP) observed 1900 UTC 24 January 2020
Temperature: 21.0°C (70°F)
Dewpoint: 19.0°C (66°F) [RH = 88%]
Pressure (altimeter): 30.12 inches Hg (1020.0 mb)
Winds: from the NW (310 degrees) at 3 MPH (3 knots; 1.5 m/s)
Visibility: 6 or more miles (10+ km)
Ceiling: at least 12,000 feet AGL
Clouds: sky clear below 12,000 feet AGL
Weather: no significant weather observed at this time

METAR text: ROMD 241800Z AUTO VRB03KT 9999 NCD 23/20 Q1020
Conditions at: ROMD (MINAMIDAITOJIMA , JP) observed 1800 UTC 24 January 2020
Temperature: 23.0°C (73°F)
Dewpoint: 20.0°C (68°F) [RH = 83%]
Pressure (altimeter): 30.12 inches Hg (1020.0 mb)
Winds: variable direction winds at 3 MPH (3 knots; 1.5 m/s)
Visibility: 6 or more miles (10+ km)
Ceiling: at least 12,000 feet AGL
Clouds: sky clear below 12,000 feet AGL
Weather: no significant weather observed at this time

METAR text: ROMD 241700Z AUTO 10004KT 030V150 9999 NSC 23/20 Q1020
Conditions at: ROMD (MINAMIDAITOJIMA , JP) observed 1700 UTC 24 January 2020
Temperature: 23.0°C (73°F)
Dewpoint: 20.0°C (68°F) [RH = 83%]
Pressure (altimeter): 30.12 inches Hg (1020.0 mb)
Winds: from the E (100 degrees) at 5 MPH (4 knots; 2.1 m/s)
Visibility: 6 or more miles (10+ km)
Ceiling: at least 12,000 feet AGL
Clouds: sky clear below 12,000 feet AGL
Weather: no significant weather observed at this time

METAR text: ROMD 241600Z AUTO 10004KT 030V170 9999 FEW012 OVC060 23/21 Q1021
Conditions at: ROMD (MINAMIDAITOJIMA , JP) observed 1600 UTC 24 January 2020
Temperature: 23.0°C (73°F)
Dewpoint: 21.0°C (70°F) [RH = 89%]
Pressure (altimeter): 30.15 inches Hg (1021.0 mb)
Winds: from the E (100 degrees) at 5 MPH (4 knots; 2.1 m/s)
Visibility: 6 or more miles (10+ km)
Ceiling: 6000 feet AGL
Clouds: few clouds at 1200 feet AGL
overcast cloud deck at 6000 feet AGL
Weather: no significant weather observed at this time

METAR text: ROMD 241500Z AUTO 10003KT 060V160 9999 FEW017 OVC060 23/20 Q1022
Conditions at: ROMD (MINAMIDAITOJIMA , JP) observed 1500 UTC 24 January 2020
Temperature: 23.0°C (73°F)
Dewpoint: 20.0°C (68°F) [RH = 83%]
Pressure (altimeter): 30.18 inches Hg (1022.0 mb)
Winds: from the E (100 degrees) at 3 MPH (3 knots; 1.5 m/s)
Visibility: 6 or more miles (10+ km)
Ceiling: 6000 feet AGL
Clouds: few clouds at 1700 feet AGL
overcast cloud deck at 6000 feet AGL
Weather: no significant weather observed at this time

METAR text: ROMD 241400Z AUTO 12003KT 010V190 9999 FEW014 OVC060 23/20 Q1021
Conditions at: ROMD (MINAMIDAITOJIMA , JP) observed 1400 UTC 24 January 2020
Temperature: 23.0°C (73°F)
Dewpoint: 20.0°C (68°F) [RH = 83%]
Pressure (altimeter): 30.15 inches Hg (1021.0 mb)
Winds: from the ESE (120 degrees) at 3 MPH (3 knots; 1.5 m/s)
Visibility: 6 or more miles (10+ km)
Ceiling: 6000 feet AGL
Clouds: few clouds at 1400 feet AGL
overcast cloud deck at 6000 feet AGL
Weather: no significant weather observed at this time

METAR text: ROMD 241300Z AUTO VRB04KT 9999 FEW013 OVC060 23/21 Q1021
Conditions at: ROMD (MINAMIDAITOJIMA , JP) observed 1300 UTC 24 January 2020
Temperature: 23.0°C (73°F)
Dewpoint: 21.0°C (70°F) [RH = 89%]
Pressure (altimeter): 30.15 inches Hg (1021.0 mb)
Winds: variable direction winds at 5 MPH (4 knots; 2.1 m/s)
Visibility: 6 or more miles (10+ km)
Ceiling: 6000 feet AGL
Clouds: few clouds at 1300 feet AGL
overcast cloud deck at 6000 feet AGL
Weather: no significant weather observed at this time

METAR text: ROMD 241200Z AUTO 10003KT 020V190 9999 FEW014 OVC060 23/20 Q1021
Conditions at: ROMD (MINAMIDAITOJIMA , JP) observed 1200 UTC 24 January 2020
Temperature: 23.0°C (73°F)
Dewpoint: 20.0°C (68°F) [RH = 83%]
Pressure (altimeter): 30.15 inches Hg (1021.0 mb)
Winds: from the E (100 degrees) at 3 MPH (3 knots; 1.5 m/s)
Visibility: 6 or more miles (10+ km)
Ceiling: 6000 feet AGL
Clouds: few clouds at 1400 feet AGL
overcast cloud deck at 6000 feet AGL
Weather: no significant weather observed at this time

METAR text: ROMD 241100Z AUTO 10003KT 030V170 9999 SCT015 SCT025 OVC060 23/21 Q1021
Conditions at: ROMD (MINAMIDAITOJIMA , JP) observed 1100 UTC 24 January 2020
Temperature: 23.0°C (73°F)
Dewpoint: 21.0°C (70°F) [RH = 89%]
Pressure (altimeter): 30.15 inches Hg (1021.0 mb)
Winds: from the E (100 degrees) at 3 MPH (3 knots; 1.5 m/s)
Visibility: 6 or more miles (10+ km)
Ceiling: 6000 feet AGL
Clouds: scattered clouds at 1500 feet AGL
scattered clouds at 2500 feet AGL
overcast cloud deck at 6000 feet AGL
Weather: no significant weather observed at this time

METAR text: ROMD 241000Z AUTO VRB03KT 9999 BKN013 OVC060 23/21 Q1020
Conditions at: ROMD (MINAMIDAITOJIMA , JP) observed 1000 UTC 24 January 2020
Temperature: 23.0°C (73°F)
Dewpoint: 21.0°C (70°F) [RH = 89%]
Pressure (altimeter): 30.12 inches Hg (1020.0 mb)
Winds: variable direction winds at 3 MPH (3 knots; 1.5 m/s)
Visibility: 6 or more miles (10+ km)
Ceiling: 1300 feet AGL
Clouds: broken clouds at 1300 feet AGL
overcast cloud deck at 6000 feet AGL
Weather: no significant weather observed at this time

METAR text: ROMD 240900Z AUTO 07003KT 010V170 9999 FEW014 OVC060 23/21 Q1020
Conditions at: ROMD (MINAMIDAITOJIMA , JP) observed 0900 UTC 24 January 2020
Temperature: 23.0°C (73°F)
Dewpoint: 21.0°C (70°F) [RH = 89%]
Pressure (altimeter): 30.12 inches Hg (1020.0 mb)
Winds: from the ENE (70 degrees) at 3 MPH (3 knots; 1.5 m/s)
Visibility: 6 or more miles (10+ km)
Ceiling: 6000 feet AGL
Clouds: few clouds at 1400 feet AGL
overcast cloud deck at 6000 feet AGL
Weather: no significant weather observed at this time

METAR text: ROMD 240800Z AUTO 09003KT 050V160 9999 NSC 24/21 Q1020
Conditions at: ROMD (MINAMIDAITOJIMA , JP) observed 0800 UTC 24 January 2020
Temperature: 24.0°C (75°F)
Dewpoint: 21.0°C (70°F) [RH = 83%]
Pressure (altimeter): 30.12 inches Hg (1020.0 mb)
Winds: from the E (90 degrees) at 3 MPH (3 knots; 1.5 m/s)
Visibility: 6 or more miles (10+ km)
Ceiling: at least 12,000 feet AGL
Clouds: sky clear below 12,000 feet AGL
Weather: no significant weather observed at this time

METAR text: ROMD 240700Z AUTO 10003KT 040V150 9999 FEW011 OVC060 24/21 Q1020
Conditions at: ROMD (MINAMIDAITOJIMA , JP) observed 0700 UTC 24 January 2020
Temperature: 24.0°C (75°F)
Dewpoint: 21.0°C (70°F) [RH = 83%]
Pressure (altimeter): 30.12 inches Hg (1020.0 mb)
Winds: from the E (100 degrees) at 3 MPH (3 knots; 1.5 m/s)
Visibility: 6 or more miles (10+ km)
Ceiling: 6000 feet AGL
Clouds: few clouds at 1100 feet AGL
overcast cloud deck at 6000 feet AGL
Weather: no significant weather observed at this time

METAR text: ROMD 240600Z AUTO 12004KT 080V180 9999 FEW013 25/21 Q1019
Conditions at: ROMD (MINAMIDAITOJIMA , JP) observed 0600 UTC 24 January 2020
Temperature: 25.0°C (77°F)
Dewpoint: 21.0°C (70°F) [RH = 79%]
Pressure (altimeter): 30.09 inches Hg (1019.0 mb)
Winds: from the ESE (120 degrees) at 5 MPH (4 knots; 2.1 m/s)
Visibility: 6 or more miles (10+ km)
Ceiling: at least 12,000 feet AGL
Clouds: few clouds at 1300 feet AGL
Weather: no significant weather observed at this time

METAR text: ROMD 240500Z AUTO 13004KT 050V180 9999 NSC 25/21 Q1020
Conditions at: ROMD (MINAMIDAITOJIMA , JP) observed 0500 UTC 24 January 2020
Temperature: 25.0°C (77°F)
Dewpoint: 21.0°C (70°F) [RH = 79%]
Pressure (altimeter): 30.12 inches Hg (1020.0 mb)
Winds: from the SE (130 degrees) at 5 MPH (4 knots; 2.1 m/s)
Visibility: 6 or more miles (10+ km)
Ceiling: at least 12,000 feet AGL
Clouds: sky clear below 12,000 feet AGL
Weather: no significant weather observed at this time

METAR text: ROMD 240400Z AUTO 13004KT 080V190 9999 NSC 25/21 Q1020
Conditions at: ROMD (MINAMIDAITOJIMA , JP) observed 0400 UTC 24 January 2020
Temperature: 25.0°C (77°F)
Dewpoint: 21.0°C (70°F) [RH = 79%]
Pressure (altimeter): 30.12 inches Hg (1020.0 mb)
Winds: from the SE (130 degrees) at 5 MPH (4 knots; 2.1 m/s)
Visibility: 6 or more miles (10+ km)
Ceiling: at least 12,000 feet AGL
Clouds: sky clear below 12,000 feet AGL
Weather: no significant weather observed at this time

METAR text: ROMD 240300Z AUTO VRB04KT 9999 NSC 25/20 Q1021
Conditions at: ROMD (MINAMIDAITOJIMA , JP) observed 0300 UTC 24 January 2020
Temperature: 25.0°C (77°F)
Dewpoint: 20.0°C (68°F) [RH = 74%]
Pressure (altimeter): 30.15 inches Hg (1021.0 mb)
Winds: variable direction winds at 5 MPH (4 knots; 2.1 m/s)
Visibility: 6 or more miles (10+ km)
Ceiling: at least 12,000 feet AGL
Clouds: sky clear below 12,000 feet AGL
Weather: no significant weather observed at this time

METAR text: ROMD 240200Z AUTO 11004KT 050V210 9999 NSC 24/21 Q1022
Conditions at: ROMD (MINAMIDAITOJIMA , JP) observed 0200 UTC 24 January 2020
Temperature: 24.0°C (75°F)
Dewpoint: 21.0°C (70°F) [RH = 83%]
Pressure (altimeter): 30.18 inches Hg (1022.0 mb)
Winds: from the ESE (110 degrees) at 5 MPH (4 knots; 2.1 m/s)
Visibility: 6 or more miles (10+ km)
Ceiling: at least 12,000 feet AGL
Clouds: sky clear below 12,000 feet AGL
Weather: no significant weather observed at this time

METAR text: ROMD 240100Z AUTO 09004KT 040V150 9999 FEW012 OVC070 24/21 Q1022
Conditions at: ROMD (MINAMIDAITOJIMA , JP) observed 0100 UTC 24 January 2020
Temperature: 24.0°C (75°F)
Dewpoint: 21.0°C (70°F) [RH = 83%]
Pressure (altimeter): 30.18 inches Hg (1022.0 mb)
Winds: from the E (90 degrees) at 5 MPH (4 knots; 2.1 m/s)
Visibility: 6 or more miles (10+ km)
Ceiling: 7000 feet AGL
Clouds: few clouds at 1200 feet AGL
overcast cloud deck at 7000 feet AGL
Weather: no significant weather observed at this time

METAR text: ROMD 240000Z AUTO VRB03KT 9999 FEW009 SCT018 BKN070 24/22 Q1022
Conditions at: ROMD (MINAMIDAITOJIMA , JP) observed 0000 UTC 24 January 2020
Temperature: 24.0°C (75°F)
Dewpoint: 22.0°C (72°F) [RH = 89%]
Pressure (altimeter): 30.18 inches Hg (1022.0 mb)
Winds: variable direction winds at 3 MPH (3 knots; 1.5 m/s)
Visibility: 6 or more miles (10+ km)
Ceiling: 7000 feet AGL
Clouds: few clouds at 900 feet AGL
scattered clouds at 1800 feet AGL
broken clouds at 7000 feet AGL
Weather: no significant weather observed at this time

METAR text: ROMD 232300Z AUTO 07003KT 340V130 9999 SCT009 BKN010 OVC070 23/21 Q1022
Conditions at: ROMD (MINAMIDAITOJIMA , JP) observed 2300 UTC 23 January 2020
Temperature: 23.0°C (73°F)
Dewpoint: 21.0°C (70°F) [RH = 89%]
Pressure (altimeter): 30.18 inches Hg (1022.0 mb)
Winds: from the ENE (70 degrees) at 3 MPH (3 knots; 1.5 m/s)
Visibility: 6 or more miles (10+ km)
Ceiling: 1000 feet AGL
Clouds: scattered clouds at 900 feet AGL
broken clouds at 1000 feet AGL
overcast cloud deck at 7000 feet AGL
Weather: no significant weather observed at this time

METAR text: ROMD 232200Z AUTO 06004KT 020V090 9000 FEW009 SCT010 BKN011 22/21 Q1021
Conditions at: ROMD (MINAMIDAITOJIMA , JP) observed 2200 UTC 23 January 2020
Temperature: 22.0°C (72°F)
Dewpoint: 21.0°C (70°F) [RH = 94%]
Pressure (altimeter): 30.15 inches Hg (1021.0 mb)
Winds: from the ENE (60 degrees) at 5 MPH (4 knots; 2.1 m/s)
Visibility: 6 miles ( 9 km)
Ceiling: 1100 feet AGL
Clouds: few clouds at 900 feet AGL
scattered clouds at 1000 feet AGL
broken clouds at 1100 feet AGL
Weather: no significant weather observed at this time

METAR text: ROMD 232100Z AUTO 07003KT 010V120 9999 NSC 22/21 Q1020
Conditions at: ROMD (MINAMIDAITOJIMA , JP) observed 2100 UTC 23 January 2020
Temperature: 22.0°C (72°F)
Dewpoint: 21.0°C (70°F) [RH = 94%]
Pressure (altimeter): 30.12 inches Hg (1020.0 mb)
Winds: from the ENE (70 degrees) at 3 MPH (3 knots; 1.5 m/s)
Visibility: 6 or more miles (10+ km)
Ceiling: at least 12,000 feet AGL
Clouds: sky clear below 12,000 feet AGL
Weather: no significant weather observed at this time

METAR text: ROMD 232000Z AUTO 06003KT 6000 NSC 22/21 Q1020
Conditions at: ROMD (MINAMIDAITOJIMA , JP) observed 2000 UTC 23 January 2020
Temperature: 22.0°C (72°F)
Dewpoint: 21.0°C (70°F) [RH = 94%]
Pressure (altimeter): 30.12 inches Hg (1020.0 mb)
Winds: from the ENE (60 degrees) at 3 MPH (3 knots; 1.5 m/s)
Visibility: 4 miles ( 6 km)
Ceiling: at least 12,000 feet AGL
Clouds: sky clear below 12,000 feet AGL
Weather: no significant weather observed at this time

METAR text: ROMD 231900Z AUTO 04002KT 9999 NSC 21/20 Q1021
Conditions at: ROMD (MINAMIDAITOJIMA , JP) observed 1900 UTC 23 January 2020
Temperature: 21.0°C (70°F)
Dewpoint: 20.0°C (68°F) [RH = 94%]
Pressure (altimeter): 30.15 inches Hg (1021.0 mb)
Winds: from the NE (40 degrees) at 2 MPH (2 knots; 1.0 m/s)
Visibility: 6 or more miles (10+ km)
Ceiling: at least 12,000 feet AGL
Clouds: sky clear below 12,000 feet AGL
Weather: no significant weather observed at this time

METAR text: ROMD 231800Z AUTO 04002KT 9000 NSC 21/20 Q1021
Conditions at: ROMD (MINAMIDAITOJIMA , JP) observed 1800 UTC 23 January 2020
Temperature: 21.0°C (70°F)
Dewpoint: 20.0°C (68°F) [RH = 94%]
Pressure (altimeter): 30.15 inches Hg (1021.0 mb)
Winds: from the NE (40 degrees) at 2 MPH (2 knots; 1.0 m/s)
Visibility: 6 miles ( 9 km)
Ceiling: at least 12,000 feet AGL
Clouds: sky clear below 12,000 feet AGL
Weather: no significant weather observed at this time

METAR text: ROMD 231700Z AUTO 18001KT 9999 NSC 21/20 Q1021
Conditions at: ROMD (MINAMIDAITOJIMA , JP) observed 1700 UTC 23 January 2020
Temperature: 21.0°C (70°F)
Dewpoint: 20.0°C (68°F) [RH = 94%]
Pressure (altimeter): 30.15 inches Hg (1021.0 mb)
Winds: from the S (180 degrees) at 1 MPH (1 knots; 0.5 m/s)
Visibility: 6 or more miles (10+ km)
Ceiling: at least 12,000 feet AGL
Clouds: sky clear below 12,000 feet AGL
Weather: no significant weather observed at this time

METAR text: ROMD 231600Z AUTO 30002KT 9999 NSC 22/21 Q1022
Conditions at: ROMD (MINAMIDAITOJIMA , JP) observed 1600 UTC 23 January 2020
Temperature: 22.0°C (72°F)
Dewpoint: 21.0°C (70°F) [RH = 94%]
Pressure (altimeter): 30.18 inches Hg (1022.0 mb)
Winds: from the WNW (300 degrees) at 2 MPH (2 knots; 1.0 m/s)
Visibility: 6 or more miles (10+ km)
Ceiling: at least 12,000 feet AGL
Clouds: sky clear below 12,000 feet AGL
Weather: no significant weather observed at this time